createdAt,value
2024-03-03T00:00:35.407Z,77.43
2024-03-03T00:01:35.466Z,77.53
2024-03-03T00:02:35.527Z,77.43
2024-03-03T00:03:37.019Z,77.53
2024-03-03T00:04:35.696Z,77.64
2024-03-03T00:05:35.773Z,77.84
2024-03-03T00:06:35.905Z,77.84
2024-03-03T00:07:35.965Z,77.94
2024-03-03T00:08:36.015Z,77.94
2024-03-03T00:09:36.189Z,77.94
2024-03-03T00:10:36.146Z,77.94
2024-03-03T00:11:36.304Z,77.94
2024-03-03T00:12:36.368Z,78.05
2024-03-03T00:13:36.417Z,77.91
2024-03-03T00:14:36.463Z,78.01
2024-03-03T00:15:36.594Z,78.01
2024-03-03T00:16:36.638Z,77.80
2024-03-03T00:17:36.755Z,77.70
2024-03-03T00:18:36.833Z,77.70
2024-03-03T00:19:36.904Z,77.60
2024-03-03T00:20:36.975Z,77.50
2024-03-03T00:21:37.277Z,77.50
2024-03-03T00:22:37.217Z,77.50
2024-03-03T00:23:37.292Z,77.50
2024-03-03T00:24:37.387Z,77.50
2024-03-03T00:25:37.370Z,77.50
2024-03-03T00:26:37.435Z,77.50
2024-03-03T00:27:38.359Z,77.36
2024-03-03T00:28:37.608Z,77.36
2024-03-03T00:29:37.722Z,77.67
2024-03-03T00:30:37.882Z,77.56
2024-03-03T00:31:37.870Z,77.56
2024-03-03T00:32:37.945Z,77.56
2024-03-03T00:33:38.083Z,77.56
2024-03-03T00:34:38.125Z,77.80
2024-03-03T00:35:38.202Z,77.80
2024-03-03T00:36:38.299Z,77.76
2024-03-03T00:37:38.329Z,77.80
2024-03-03T00:38:38.563Z,77.56
2024-03-03T00:39:38.552Z,77.56
2024-03-03T00:40:38.570Z,77.67
2024-03-03T00:41:38.661Z,77.67
2024-03-03T00:42:38.784Z,77.67
2024-03-03T00:43:38.839Z,77.67
2024-03-03T00:44:38.972Z,77.76
2024-03-03T00:45:39.014Z,77.87
2024-03-03T00:46:39.098Z,77.87
2024-03-03T00:47:39.219Z,78.11
2024-03-03T00:48:39.306Z,78.11
2024-03-03T00:49:39.365Z,78.11
2024-03-03T00:50:39.459Z,78.11
2024-03-03T00:51:39.561Z,78.21
2024-03-03T00:52:39.642Z,78.11
2024-03-03T00:53:39.693Z,78.21
2024-03-03T00:54:39.826Z,78.01
2024-03-03T00:55:39.873Z,78.01
2024-03-03T00:56:39.969Z,78.01
2024-03-03T00:57:40.056Z,78.31
2024-03-03T00:58:40.127Z,78.11
2024-03-03T00:59:40.188Z,78.21
2024-03-03T01:00:40.317Z,78.01
2024-03-03T01:01:40.356Z,78.21
2024-03-03T01:02:40.465Z,78.21
2024-03-03T01:03:40.577Z,78.31
2024-03-03T01:04:40.641Z,78.21
2024-03-03T01:05:40.688Z,78.01
2024-03-03T01:06:40.825Z,78.11
2024-03-03T01:07:43.217Z,78.21
2024-03-03T01:08:40.956Z,78.42
2024-03-03T01:09:41.090Z,78.31
2024-03-03T01:10:41.130Z,78.42
2024-03-03T01:11:41.258Z,78.42
2024-03-03T01:12:41.267Z,78.42
2024-03-03T01:13:41.314Z,78.42
2024-03-03T01:14:41.429Z,78.42
2024-03-03T01:15:41.496Z,78.52
2024-03-03T01:16:41.543Z,78.52
2024-03-03T01:17:41.610Z,78.42
2024-03-03T01:18:41.712Z,78.42
2024-03-03T01:19:42.082Z,78.42
2024-03-03T01:20:41.871Z,78.42
2024-03-03T01:21:41.976Z,78.52
2024-03-03T01:22:42.063Z,78.42
2024-03-03T01:23:42.123Z,78.42
2024-03-03T01:24:42.296Z,78.31
2024-03-03T01:25:42.268Z,78.21
2024-03-03T01:26:42.365Z,78.42
2024-03-03T01:27:42.466Z,78.42
2024-03-03T01:28:42.512Z,78.42
2024-03-03T01:29:42.614Z,78.52
2024-03-03T01:30:42.766Z,78.42
2024-03-03T01:31:42.802Z,78.52
2024-03-03T01:32:42.933Z,78.72
2024-03-03T01:33:42.982Z,78.76
2024-03-03T01:34:43.057Z,78.66
2024-03-03T01:35:43.112Z,78.56
2024-03-03T01:36:43.231Z,78.45
2024-03-03T01:37:43.270Z,78.52
2024-03-03T01:38:43.343Z,78.42
2024-03-03T01:39:43.536Z,78.31
2024-03-03T01:40:43.504Z,78.31
2024-03-03T01:41:43.569Z,78.52
2024-03-03T01:42:43.697Z,78.52
2024-03-03T01:43:43.766Z,78.45
2024-03-03T01:44:43.878Z,78.45
2024-03-03T01:45:44.015Z,78.35
2024-03-03T01:46:44.046Z,78.21
2024-03-03T01:47:44.146Z,78.42
2024-03-03T01:48:44.263Z,78.35
2024-03-03T01:49:44.306Z,78.15
2024-03-03T01:50:44.369Z,78.15
2024-03-03T01:51:44.435Z,78.15
2024-03-03T01:52:44.518Z,78.21
2024-03-03T01:53:44.632Z,78.21
2024-03-03T01:54:44.716Z,78.35
2024-03-03T01:55:44.766Z,78.45
2024-03-03T01:56:44.937Z,78.45
2024-03-03T01:57:44.940Z,78.25
2024-03-03T01:58:45.011Z,78.25
2024-03-03T01:59:45.107Z,78.35
2024-03-03T02:00:45.208Z,78.45
2024-03-03T02:01:45.290Z,78.25
2024-03-03T02:02:45.312Z,78.25
2024-03-03T02:03:45.410Z,78.25
2024-03-03T02:04:45.484Z,78.25
2024-03-03T02:05:45.548Z,78.35
2024-03-03T02:06:45.628Z,78.35
2024-03-03T02:07:45.689Z,78.35
2024-03-03T02:08:45.783Z,78.25
2024-03-03T02:09:45.992Z,78.35
2024-03-03T02:10:45.994Z,78.45
2024-03-03T02:11:46.038Z,78.56
2024-03-03T02:12:46.152Z,78.56
2024-03-03T02:13:46.198Z,78.66
2024-03-03T02:14:46.306Z,78.66
2024-03-03T02:15:46.421Z,78.66
2024-03-03T02:16:46.428Z,78.66
2024-03-03T02:17:46.569Z,78.66
2024-03-03T02:18:46.618Z,78.66
2024-03-03T02:19:46.723Z,78.76
2024-03-03T02:20:46.776Z,78.66
2024-03-03T02:21:46.861Z,78.76
2024-03-03T02:22:46.909Z,78.86
2024-03-03T02:23:46.970Z,78.97
2024-03-03T02:24:47.157Z,79.00
2024-03-03T02:25:47.158Z,78.90
2024-03-03T02:26:47.258Z,79.00
2024-03-03T02:27:47.342Z,79.00
2024-03-03T02:28:47.397Z,79.11
2024-03-03T02:29:47.545Z,79.11
2024-03-03T02:30:47.556Z,79.21
2024-03-03T02:31:47.585Z,79.52
2024-03-03T02:32:47.752Z,79.62
2024-03-03T02:33:47.861Z,79.72
2024-03-03T02:34:48.077Z,79.82
2024-03-03T02:35:47.936Z,79.93
2024-03-03T02:36:48.048Z,79.82
2024-03-03T02:37:48.119Z,79.93
2024-03-03T02:38:48.204Z,80.07
2024-03-03T02:39:48.484Z,80.27
2024-03-03T02:40:48.357Z,80.37
2024-03-03T02:41:48.453Z,80.37
2024-03-03T02:42:48.550Z,80.37
2024-03-03T02:43:48.629Z,80.47
2024-03-03T02:44:48.820Z,80.68
2024-03-03T02:45:48.804Z,80.78
2024-03-03T02:46:48.831Z,80.92
2024-03-03T02:47:48.944Z,81.13
2024-03-03T02:48:49.139Z,81.34
2024-03-03T02:49:49.056Z,81.54
2024-03-03T02:50:49.127Z,81.34
2024-03-03T02:51:49.239Z,81.34
2024-03-03T02:52:49.320Z,81.23
2024-03-03T02:53:49.411Z,81.23
2024-03-03T02:54:49.918Z,81.13
2024-03-03T02:55:49.589Z,81.23
2024-03-03T02:56:49.659Z,81.43
2024-03-03T02:57:49.769Z,81.68
2024-03-03T02:58:49.810Z,81.99
2024-03-03T02:59:49.906Z,82.09
2024-03-03T03:00:50.141Z,82.33
2024-03-03T03:01:50.289Z,82.33
2024-03-03T03:02:50.143Z,82.29
2024-03-03T03:03:50.255Z,82.19
2024-03-03T03:04:50.322Z,82.09
2024-03-03T03:05:50.441Z,82.09
2024-03-03T03:06:50.521Z,82.09
2024-03-03T03:07:50.617Z,81.99
2024-03-03T03:08:50.668Z,82.09
2024-03-03T03:09:50.766Z,82.19
2024-03-03T03:10:50.852Z,82.29
2024-03-03T03:11:50.890Z,82.40
2024-03-03T03:12:51.025Z,82.43
2024-03-03T03:13:51.062Z,82.54
2024-03-03T03:14:51.148Z,82.54
2024-03-03T03:15:51.283Z,82.75
2024-03-03T03:16:51.292Z,82.84
2024-03-03T03:17:51.407Z,82.95
2024-03-03T03:18:51.508Z,83.05
2024-03-03T03:19:51.678Z,83.15
2024-03-03T03:20:51.604Z,83.15
2024-03-03T03:21:51.735Z,83.05
2024-03-03T03:22:51.766Z,83.15
2024-03-03T03:23:51.858Z,83.26
2024-03-03T03:24:51.982Z,83.26
2024-03-03T03:25:52.033Z,83.26
2024-03-03T03:26:52.080Z,83.36
2024-03-03T03:27:52.199Z,83.36
2024-03-03T03:28:52.219Z,83.36
2024-03-03T03:29:52.320Z,83.26
2024-03-03T03:30:52.461Z,83.26
2024-03-03T03:31:52.446Z,83.15
2024-03-03T03:32:52.587Z,82.84
2024-03-03T03:33:52.653Z,82.64
2024-03-03T03:34:52.726Z,82.40
2024-03-03T03:35:52.818Z,82.40
2024-03-03T03:36:52.940Z,82.50
2024-03-03T03:37:52.944Z,82.64
2024-03-03T03:38:53.026Z,82.70
2024-03-03T03:39:53.125Z,82.84
2024-03-03T03:40:53.160Z,82.81
2024-03-03T03:41:53.239Z,82.81
2024-03-03T03:42:53.365Z,82.91
2024-03-03T03:43:53.388Z,82.91
2024-03-03T03:44:53.457Z,83.01
2024-03-03T03:45:53.804Z,82.81
2024-03-03T03:46:53.643Z,82.70
2024-03-03T03:47:53.733Z,82.70
2024-03-03T03:48:53.812Z,82.70
2024-03-03T03:49:53.876Z,82.70
2024-03-03T03:50:53.991Z,82.91
2024-03-03T03:51:54.099Z,82.91
2024-03-03T03:52:54.123Z,82.81
2024-03-03T03:53:54.185Z,82.70
2024-03-03T03:54:54.266Z,82.70
2024-03-03T03:55:54.366Z,82.81
2024-03-03T03:56:54.397Z,82.81
2024-03-03T03:57:54.505Z,82.91
2024-03-03T03:58:54.561Z,83.01
2024-03-03T03:59:54.636Z,82.91
2024-03-03T04:00:54.766Z,83.01
2024-03-03T04:01:54.916Z,82.91
2024-03-03T04:02:54.884Z,83.01
2024-03-03T04:03:54.952Z,82.91
2024-03-03T04:04:55.056Z,83.01
2024-03-03T04:05:55.133Z,83.01
2024-03-03T04:06:55.242Z,83.12
2024-03-03T04:07:55.267Z,83.12
2024-03-03T04:08:55.334Z,83.01
2024-03-03T04:09:55.444Z,83.12
2024-03-03T04:10:55.516Z,83.32
2024-03-03T04:11:55.618Z,83.22
2024-03-03T04:12:55.728Z,83.22
2024-03-03T04:13:55.793Z,83.32
2024-03-03T04:14:55.846Z,83.32
2024-03-03T04:15:56.042Z,83.32
2024-03-03T04:16:56.018Z,83.32
2024-03-03T04:17:56.164Z,83.42
2024-03-03T04:18:56.154Z,83.42
2024-03-03T04:19:56.201Z,83.42
2024-03-03T04:20:56.292Z,83.63
2024-03-03T04:21:56.389Z,83.63
2024-03-03T04:22:56.409Z,83.63
2024-03-03T04:23:56.511Z,83.73
2024-03-03T04:24:56.612Z,83.73
2024-03-03T04:25:56.700Z,83.63
2024-03-03T04:26:56.738Z,83.63
2024-03-03T04:27:56.879Z,83.53
2024-03-03T04:28:56.922Z,83.63
2024-03-03T04:29:56.993Z,83.63
2024-03-03T04:30:57.111Z,83.63
2024-03-03T04:31:57.145Z,83.63
2024-03-03T04:32:57.272Z,83.53
2024-03-03T04:33:57.367Z,83.53
2024-03-03T04:34:57.371Z,83.63
2024-03-03T04:35:57.434Z,83.53
2024-03-03T04:36:57.510Z,83.53
2024-03-03T04:37:57.564Z,83.53
2024-03-03T04:38:57.627Z,83.53
2024-03-03T04:39:57.843Z,83.63
2024-03-03T04:40:57.792Z,83.73
2024-03-03T04:41:57.865Z,83.83
2024-03-03T04:42:58.011Z,83.98
2024-03-03T04:43:58.052Z,84.18
2024-03-03T04:44:58.135Z,84.08
2024-03-03T04:45:58.792Z,84.08
2024-03-03T04:46:58.261Z,84.08
2024-03-03T04:47:58.370Z,84.08
2024-03-03T04:48:58.431Z,84.08
2024-03-03T04:49:58.487Z,83.98
2024-03-03T04:50:58.574Z,83.98
2024-03-03T04:51:58.672Z,83.98
2024-03-03T04:52:58.734Z,84.08
2024-03-03T04:53:58.828Z,84.08
2024-03-03T04:54:58.931Z,83.98
2024-03-03T04:55:58.995Z,84.08
2024-03-03T04:56:59.050Z,83.98
2024-03-03T04:57:59.146Z,83.98
2024-03-03T04:58:59.304Z,83.98
2024-03-03T04:59:59.322Z,84.08
2024-03-03T05:00:59.515Z,84.08
2024-03-03T05:01:59.496Z,84.18
2024-03-03T05:02:59.505Z,84.28
2024-03-03T05:03:59.600Z,84.28
2024-03-03T05:04:59.709Z,84.18
2024-03-03T05:05:59.827Z,84.08
2024-03-03T05:06:59.846Z,84.08
2024-03-03T05:07:59.914Z,84.18
2024-03-03T05:08:59.981Z,84.08
2024-03-03T05:10:00.126Z,84.08
2024-03-03T05:11:00.364Z,83.98
2024-03-03T05:12:00.215Z,83.94
2024-03-03T05:13:00.329Z,83.94
2024-03-03T05:14:00.394Z,83.83
2024-03-03T05:15:00.492Z,83.94
2024-03-03T05:16:00.832Z,84.08
2024-03-03T05:17:00.650Z,84.28
2024-03-03T05:18:00.758Z,84.28
2024-03-03T05:19:00.901Z,84.39
2024-03-03T05:20:00.885Z,84.28
2024-03-03T05:21:01.203Z,84.28
2024-03-03T05:22:01.055Z,84.28
2024-03-03T05:23:01.119Z,84.18
2024-03-03T05:24:01.199Z,84.18
2024-03-03T05:25:01.349Z,84.08
2024-03-03T05:26:01.616Z,84.18
2024-03-03T05:27:01.396Z,84.18
2024-03-03T05:28:01.562Z,84.49
2024-03-03T05:29:01.573Z,84.49
2024-03-03T05:30:01.681Z,84.49
2024-03-03T05:31:01.835Z,84.49
2024-03-03T05:32:01.809Z,84.59
2024-03-03T05:33:01.989Z,84.59
2024-03-03T05:34:02.086Z,84.59
2024-03-03T05:35:02.044Z,84.59
2024-03-03T05:36:02.317Z,84.59
2024-03-03T05:37:02.240Z,84.59
2024-03-03T05:38:02.251Z,84.59
2024-03-03T05:39:02.376Z,84.59
2024-03-03T05:40:02.548Z,84.59
2024-03-03T05:41:02.508Z,84.59
2024-03-03T05:42:02.580Z,84.59
2024-03-03T05:43:02.724Z,84.49
2024-03-03T05:44:02.729Z,84.49
2024-03-03T05:45:02.844Z,84.69
2024-03-03T05:46:02.992Z,84.80
2024-03-03T05:47:02.970Z,85.11
2024-03-03T05:48:03.148Z,85.41
2024-03-03T05:49:03.134Z,85.66
2024-03-03T05:50:03.207Z,85.76
2024-03-03T05:51:03.267Z,85.97
2024-03-03T05:52:03.379Z,86.07
2024-03-03T05:53:03.421Z,86.17
2024-03-03T05:54:03.511Z,86.17
2024-03-03T05:55:03.629Z,86.17
2024-03-03T05:56:03.677Z,86.17
2024-03-03T05:57:03.717Z,86.07
2024-03-03T05:58:03.867Z,85.97
2024-03-03T05:59:03.858Z,85.97
2024-03-03T06:00:03.936Z,85.86
2024-03-03T06:01:04.106Z,85.97
2024-03-03T06:02:04.160Z,86.17
2024-03-03T06:03:04.175Z,86.32
2024-03-03T06:04:04.290Z,86.32
2024-03-03T06:05:04.334Z,86.42
2024-03-03T06:06:04.447Z,86.52
2024-03-03T06:07:04.514Z,86.52
2024-03-03T06:08:04.579Z,86.52
2024-03-03T06:09:04.665Z,86.72
2024-03-03T06:10:04.777Z,86.72
2024-03-03T06:11:04.909Z,86.62
2024-03-03T06:12:04.900Z,86.52
2024-03-03T06:13:05.022Z,86.62
2024-03-03T06:14:05.069Z,86.72
2024-03-03T06:15:05.160Z,86.83
2024-03-03T06:16:05.283Z,86.83
2024-03-03T06:17:05.304Z,86.93
2024-03-03T06:18:05.464Z,87.04
2024-03-03T06:19:05.519Z,87.04
2024-03-03T06:20:05.582Z,86.93
2024-03-03T06:21:05.688Z,86.72
2024-03-03T06:22:05.772Z,86.42
2024-03-03T06:23:05.846Z,86.42
2024-03-03T06:24:05.926Z,86.42
2024-03-03T06:25:06.070Z,86.62
2024-03-03T06:26:06.120Z,86.72
2024-03-03T06:27:06.167Z,86.72
2024-03-03T06:28:06.265Z,86.72
2024-03-03T06:29:07.446Z,86.72
2024-03-03T06:30:06.401Z,86.62
2024-03-03T06:31:06.503Z,86.62
2024-03-03T06:32:06.592Z,86.83
2024-03-03T06:33:06.706Z,86.83
2024-03-03T06:34:06.827Z,87.04
2024-03-03T06:35:06.848Z,87.13
2024-03-03T06:36:06.946Z,87.24
2024-03-03T06:37:07.078Z,87.34
2024-03-03T06:38:07.072Z,87.45
2024-03-03T06:39:07.160Z,87.55
2024-03-03T06:40:07.257Z,87.45
2024-03-03T06:41:07.354Z,87.34
2024-03-03T06:42:07.462Z,87.45
2024-03-03T06:43:07.509Z,87.34
2024-03-03T06:44:07.564Z,87.24
2024-03-03T06:45:07.653Z,87.13
2024-03-03T06:46:07.786Z,87.13
2024-03-03T06:47:07.832Z,87.13
2024-03-03T06:48:07.944Z,87.04
2024-03-03T06:49:08.000Z,86.93
2024-03-03T06:50:08.077Z,86.83
2024-03-03T06:51:08.181Z,86.62
2024-03-03T06:52:08.395Z,86.58
2024-03-03T06:53:08.297Z,86.48
2024-03-03T06:54:08.384Z,86.48
2024-03-03T06:55:08.601Z,86.38
2024-03-03T06:56:08.603Z,86.27
2024-03-03T06:57:08.667Z,86.17
2024-03-03T06:58:08.744Z,86.17
2024-03-03T06:59:08.808Z,86.27
2024-03-03T07:00:08.913Z,86.38
2024-03-03T07:01:09.088Z,86.48
2024-03-03T07:02:09.156Z,86.48
2024-03-03T07:03:09.167Z,86.48
2024-03-03T07:04:09.316Z,86.58
2024-03-03T07:05:09.412Z,86.48
2024-03-03T07:06:09.393Z,86.38
2024-03-03T07:07:09.469Z,86.38
2024-03-03T07:08:09.518Z,86.27
2024-03-03T07:09:09.709Z,86.17
2024-03-03T07:10:09.803Z,86.27
2024-03-03T07:11:09.878Z,86.17
2024-03-03T07:12:09.876Z,86.03
2024-03-03T07:13:10.001Z,85.93
2024-03-03T07:14:10.061Z,85.72
2024-03-03T07:15:10.141Z,85.62
2024-03-03T07:16:10.331Z,85.62
2024-03-03T07:17:10.298Z,85.52
2024-03-03T07:18:10.459Z,85.52
2024-03-03T07:19:10.528Z,85.41
2024-03-03T07:20:10.567Z,85.31
2024-03-03T07:21:10.641Z,85.52
2024-03-03T07:22:10.787Z,85.72
2024-03-03T07:23:10.796Z,86.03
2024-03-03T07:24:10.918Z,86.24
2024-03-03T07:25:11.015Z,86.24
2024-03-03T07:26:11.102Z,86.13
2024-03-03T07:27:11.135Z,86.13
2024-03-03T07:28:11.355Z,85.93
2024-03-03T07:29:11.294Z,85.93
2024-03-03T07:30:11.379Z,85.89
2024-03-03T07:31:11.508Z,85.78
2024-03-03T07:32:11.551Z,85.68
2024-03-03T07:33:11.706Z,85.58
2024-03-03T07:34:11.749Z,85.58
2024-03-03T07:35:11.780Z,85.68
2024-03-03T07:36:11.892Z,85.68
2024-03-03T07:37:12.039Z,85.68
2024-03-03T07:38:12.034Z,85.64
2024-03-03T07:39:12.114Z,85.44
2024-03-03T07:40:12.264Z,85.23
2024-03-03T07:41:12.313Z,85.13
2024-03-03T07:42:12.372Z,84.82
2024-03-03T07:43:12.480Z,84.72
2024-03-03T07:44:12.538Z,84.61
2024-03-03T07:45:12.600Z,84.41
2024-03-03T07:46:12.763Z,84.10
2024-03-03T07:47:12.757Z,84.52
2024-03-03T07:48:12.844Z,84.61
2024-03-03T07:49:12.937Z,84.82
2024-03-03T07:50:12.997Z,84.72
2024-03-03T07:51:13.076Z,84.52
2024-03-03T07:52:13.229Z,84.41
2024-03-03T07:53:13.218Z,84.61
2024-03-03T07:54:13.285Z,84.58
2024-03-03T07:55:13.404Z,84.52
2024-03-03T07:56:13.449Z,84.61
2024-03-03T07:57:13.516Z,84.61
2024-03-03T07:58:13.609Z,84.68
2024-03-03T07:59:13.677Z,84.78
2024-03-03T08:00:13.756Z,84.68
2024-03-03T08:01:13.975Z,84.68
2024-03-03T08:02:13.952Z,84.47
2024-03-03T08:03:13.978Z,84.47
2024-03-03T08:04:14.073Z,84.23
2024-03-03T08:05:14.162Z,84.12
2024-03-03T08:06:14.213Z,84.27
2024-03-03T08:07:14.308Z,84.37
2024-03-03T08:08:14.366Z,84.58
2024-03-03T08:09:14.459Z,84.68
2024-03-03T08:10:14.586Z,84.58
2024-03-03T08:11:14.669Z,84.53
2024-03-03T08:12:14.705Z,84.74
2024-03-03T08:13:14.770Z,84.64
2024-03-03T08:14:14.843Z,84.23
2024-03-03T08:15:14.920Z,83.68
2024-03-03T08:16:15.107Z,83.06
2024-03-03T08:17:15.104Z,82.76
2024-03-03T08:18:15.230Z,82.24
2024-03-03T08:19:15.255Z,81.79
2024-03-03T08:20:15.299Z,81.70
2024-03-03T08:21:15.397Z,81.79
2024-03-03T08:22:15.515Z,82.00
2024-03-03T08:23:15.532Z,81.56
2024-03-03T08:24:15.612Z,81.04
2024-03-03T08:25:15.794Z,80.63
2024-03-03T08:26:15.779Z,80.83
2024-03-03T08:27:15.840Z,80.74
2024-03-03T08:28:15.981Z,80.43
2024-03-03T08:29:15.987Z,80.08
2024-03-03T08:30:16.065Z,80.08
2024-03-03T08:31:16.183Z,80.19
2024-03-03T08:32:16.209Z,80.19
2024-03-03T08:33:16.321Z,79.78
2024-03-03T08:34:16.413Z,79.98
2024-03-03T08:35:16.396Z,79.68
2024-03-03T08:36:16.481Z,79.57
2024-03-03T08:37:16.601Z,79.53
2024-03-03T08:38:16.662Z,79.53
2024-03-03T08:39:16.716Z,79.19
2024-03-03T08:40:16.892Z,78.27
2024-03-03T08:41:16.890Z,77.25
2024-03-03T08:42:16.975Z,77.62
2024-03-03T08:43:17.105Z,77.01
2024-03-03T08:44:18.403Z,76.77
2024-03-03T08:45:17.366Z,76.32
2024-03-03T08:46:17.427Z,76.12
2024-03-03T08:47:17.424Z,75.10
2024-03-03T08:48:17.493Z,74.86
2024-03-03T08:49:17.615Z,75.20
2024-03-03T08:50:17.628Z,75.41
2024-03-03T08:51:17.723Z,74.79
2024-03-03T08:52:17.889Z,75.10
2024-03-03T08:53:17.877Z,75.13
2024-03-03T08:54:17.945Z,75.75
2024-03-03T08:55:18.076Z,76.29
2024-03-03T08:56:18.152Z,76.81
2024-03-03T08:57:18.208Z,77.22
2024-03-03T08:58:18.344Z,77.62
2024-03-03T08:59:18.400Z,77.93
2024-03-03T09:00:18.466Z,77.62
2024-03-03T09:01:18.627Z,77.22
2024-03-03T09:02:18.608Z,77.11
2024-03-03T09:03:18.701Z,77.22
2024-03-03T09:04:18.810Z,77.31
2024-03-03T09:05:18.853Z,77.52
2024-03-03T09:06:18.972Z,77.08
2024-03-03T09:07:19.106Z,76.46
2024-03-03T09:08:19.137Z,76.56
2024-03-03T09:09:19.212Z,76.56
2024-03-03T09:10:19.335Z,76.36
2024-03-03T09:11:19.450Z,76.16
2024-03-03T09:12:19.440Z,76.67
2024-03-03T09:13:19.630Z,76.06
2024-03-03T09:14:19.612Z,76.16
2024-03-03T09:15:19.687Z,76.02
2024-03-03T09:16:22.739Z,75.68
2024-03-03T09:17:19.826Z,75.13
2024-03-03T09:18:19.922Z,74.11
2024-03-03T09:19:20.148Z,71.47
2024-03-03T09:20:20.099Z,69.34
2024-03-03T09:21:20.158Z,67.72
2024-03-03T09:22:20.272Z,65.76
2024-03-03T09:23:20.296Z,64.45
2024-03-03T09:24:20.675Z,62.51
2024-03-03T09:25:20.514Z,60.10
2024-03-03T09:26:20.593Z,58.58
2024-03-03T09:27:20.636Z,55.13
2024-03-03T09:28:20.822Z,55.39
2024-03-03T09:29:24.010Z,56.42
2024-03-03T09:30:20.831Z,56.52
2024-03-03T09:31:21.026Z,56.47
2024-03-03T09:32:20.996Z,55.66
2024-03-03T09:33:21.084Z,55.59
2024-03-03T09:34:21.305Z,55.79
2024-03-03T09:35:21.251Z,56.20
2024-03-03T09:36:21.333Z,56.32
2024-03-03T09:37:21.480Z,56.62
2024-03-03T09:38:21.502Z,56.60
2024-03-03T09:39:21.599Z,56.45
2024-03-03T09:40:21.693Z,58.78
2024-03-03T09:41:21.787Z,59.35
2024-03-03T09:42:21.836Z,57.91
2024-03-03T09:43:22.012Z,57.98
2024-03-03T09:44:22.003Z,56.55
2024-03-03T09:45:22.124Z,57.58
2024-03-03T09:46:22.373Z,57.48
2024-03-03T09:47:22.280Z,58.19
2024-03-03T09:48:22.364Z,57.65
2024-03-03T09:49:22.532Z,57.00
2024-03-03T09:50:22.502Z,56.16
2024-03-03T09:51:22.617Z,55.54
2024-03-03T09:52:22.696Z,55.31
2024-03-03T09:53:22.781Z,55.18
2024-03-03T09:54:22.836Z,54.28
2024-03-03T09:55:23.197Z,53.85
2024-03-03T09:56:23.018Z,53.65
2024-03-03T09:57:23.078Z,53.70
2024-03-03T09:58:23.176Z,54.73
2024-03-03T09:59:23.220Z,55.59
2024-03-03T10:00:23.295Z,56.48
2024-03-03T10:01:23.447Z,58.50
2024-03-03T10:02:25.565Z,59.81
2024-03-03T10:03:23.513Z,61.59
2024-03-03T10:04:23.699Z,61.19
2024-03-03T10:05:23.672Z,62.15
2024-03-03T10:06:23.772Z,62.12
2024-03-03T10:07:24.035Z,61.13
2024-03-03T10:08:23.926Z,59.02
2024-03-03T10:09:23.991Z,58.89
2024-03-03T10:10:24.156Z,57.40
2024-03-03T10:11:24.199Z,57.04
2024-03-03T10:12:27.583Z,54.35
2024-03-03T10:13:24.317Z,52.77
2024-03-03T10:14:24.372Z,51.76
2024-03-03T10:15:24.439Z,51.56
2024-03-03T10:16:24.582Z,52.74
2024-03-03T10:17:24.663Z,53.80
2024-03-03T10:18:24.689Z,55.39
2024-03-03T10:19:24.807Z,57.61
2024-03-03T10:20:24.853Z,59.18
2024-03-03T10:21:24.939Z,60.14
2024-03-03T10:22:25.052Z,61.41
2024-03-03T10:23:25.368Z,62.05
2024-03-03T10:24:25.586Z,62.66
2024-03-03T10:25:25.413Z,62.59
2024-03-03T10:26:25.366Z,63.20
2024-03-03T10:27:25.448Z,64.54
2024-03-03T10:28:25.814Z,64.44
2024-03-03T10:29:25.639Z,64.21
2024-03-03T10:30:25.724Z,63.98
2024-03-03T10:31:25.877Z,63.47
2024-03-03T10:32:25.993Z,63.17
2024-03-03T10:33:25.954Z,63.70
2024-03-03T10:34:26.248Z,64.21
2024-03-03T10:35:26.107Z,64.51
2024-03-03T10:36:26.183Z,63.90
2024-03-03T10:37:26.347Z,63.70
2024-03-03T10:38:26.327Z,63.47
2024-03-03T10:39:26.419Z,63.07
2024-03-03T10:40:26.527Z,63.04
2024-03-03T10:41:26.560Z,63.24
2024-03-03T10:42:26.795Z,63.64
2024-03-03T10:43:26.769Z,63.87
2024-03-03T10:44:26.761Z,63.78
2024-03-03T10:45:26.841Z,63.27
2024-03-03T10:46:26.953Z,63.37
2024-03-03T10:47:27.034Z,63.17
2024-03-03T10:48:27.057Z,63.87
2024-03-03T10:49:27.230Z,63.47
2024-03-03T10:50:27.224Z,63.57
2024-03-03T10:51:27.279Z,63.47
2024-03-03T10:52:27.487Z,63.67
2024-03-03T10:53:29.773Z,63.27
2024-03-03T10:54:27.527Z,63.90
2024-03-03T10:55:27.649Z,64.51
2024-03-03T10:56:27.725Z,64.11
2024-03-03T10:57:27.777Z,64.28
2024-03-03T10:58:28.042Z,63.60
2024-03-03T10:59:31.065Z,64.70
2024-03-03T11:00:28.016Z,65.55
2024-03-03T11:01:28.160Z,66.66
2024-03-03T11:02:28.160Z,67.17
2024-03-03T11:03:28.222Z,66.13
2024-03-03T11:04:28.356Z,66.23
2024-03-03T11:05:30.945Z,66.02
2024-03-03T11:06:28.478Z,66.13
2024-03-03T11:07:28.591Z,66.43
2024-03-03T11:08:28.621Z,66.94
2024-03-03T11:09:28.703Z,67.34
2024-03-03T11:10:28.904Z,66.50
2024-03-03T11:11:31.780Z,65.62
2024-03-03T11:12:28.925Z,65.89
2024-03-03T11:13:29.067Z,65.69
2024-03-03T11:14:29.079Z,65.36
2024-03-03T11:15:29.164Z,64.54
2024-03-03T11:16:29.304Z,64.37
2024-03-03T11:17:31.380Z,64.27
2024-03-03T11:18:29.394Z,65.48
2024-03-03T11:19:29.529Z,66.09
2024-03-03T11:20:29.548Z,65.99
2024-03-03T11:21:29.638Z,66.30
2024-03-03T11:22:29.786Z,66.16
2024-03-03T11:23:29.782Z,65.45
2024-03-03T11:24:29.872Z,65.36
2024-03-03T11:25:30.062Z,65.45
2024-03-03T11:26:30.058Z,66.06
2024-03-03T11:27:30.090Z,65.05
2024-03-03T11:28:30.287Z,63.63
2024-03-03T11:29:30.252Z,64.14
2024-03-03T11:30:30.342Z,65.66
2024-03-03T11:31:30.506Z,65.25
2024-03-03T11:32:30.584Z,65.02
2024-03-03T11:33:30.582Z,64.82
2024-03-03T11:34:30.692Z,64.51
2024-03-03T11:35:30.720Z,64.58
2024-03-03T11:36:30.831Z,63.90
2024-03-03T11:37:30.935Z,65.25
2024-03-03T11:38:31.001Z,66.77
2024-03-03T11:39:31.053Z,66.13
2024-03-03T11:40:31.177Z,65.39
2024-03-03T11:41:31.213Z,65.12
2024-03-03T11:42:31.265Z,66.03
2024-03-03T11:43:31.350Z,65.42
2024-03-03T11:44:31.412Z,64.89
2024-03-03T11:45:31.470Z,64.28
2024-03-03T11:46:31.651Z,64.35
2024-03-03T11:47:31.670Z,63.34
2024-03-03T11:48:31.752Z,63.84
2024-03-03T11:49:31.876Z,63.07
2024-03-03T11:50:31.916Z,64.61
2024-03-03T11:51:32.010Z,65.53
2024-03-03T11:52:32.138Z,65.70
2024-03-03T11:53:32.150Z,65.09
2024-03-03T11:54:32.232Z,64.76
2024-03-03T11:55:32.509Z,65.26
2024-03-03T11:56:32.401Z,63.87
2024-03-03T11:57:32.517Z,64.58
2024-03-03T11:58:32.606Z,64.99
2024-03-03T11:59:32.642Z,64.45
2024-03-03T12:00:32.725Z,64.65
2024-03-03T12:01:32.911Z,64.35
2024-03-03T12:02:33.511Z,63.64
2024-03-03T12:03:32.947Z,64.45
2024-03-03T12:04:33.087Z,64.25
2024-03-03T12:05:33.100Z,64.25
2024-03-03T12:06:33.219Z,64.32
2024-03-03T12:07:33.332Z,64.22
2024-03-03T12:08:33.348Z,64.22
2024-03-03T12:09:33.467Z,64.52
2024-03-03T12:10:34.149Z,63.01
2024-03-03T12:11:33.687Z,62.81
2024-03-03T12:12:33.679Z,62.70
2024-03-03T12:13:33.831Z,62.60
2024-03-03T12:14:33.827Z,63.10
2024-03-03T12:15:33.915Z,62.30
2024-03-03T12:16:34.145Z,62.50
2024-03-03T12:17:34.077Z,63.04
2024-03-03T12:18:34.152Z,63.54
2024-03-03T12:19:34.266Z,63.24
2024-03-03T12:20:34.389Z,62.93
2024-03-03T12:21:34.433Z,63.44
2024-03-03T12:22:34.594Z,64.35
2024-03-03T12:23:34.585Z,63.34
2024-03-03T12:24:34.682Z,63.98
2024-03-03T12:25:34.814Z,64.28
2024-03-03T12:26:34.858Z,64.69
2024-03-03T12:27:34.900Z,64.69
2024-03-03T12:28:35.021Z,64.38
2024-03-03T12:29:35.074Z,64.69
2024-03-03T12:30:35.144Z,64.89
2024-03-03T12:31:35.268Z,64.25
2024-03-03T12:32:35.394Z,64.04
2024-03-03T12:33:35.372Z,63.44
2024-03-03T12:34:35.476Z,62.73
2024-03-03T12:35:35.537Z,63.04
2024-03-03T12:36:35.623Z,62.84
2024-03-03T12:37:35.702Z,63.24
2024-03-03T12:38:35.784Z,63.44
2024-03-03T12:39:35.864Z,63.54
2024-03-03T12:40:35.977Z,62.84
2024-03-03T12:41:36.063Z,62.43
2024-03-03T12:42:36.109Z,62.84
2024-03-03T12:43:36.233Z,62.33
2024-03-03T12:44:36.314Z,62.84
2024-03-03T12:45:36.391Z,62.53
2024-03-03T12:46:36.487Z,62.63
2024-03-03T12:47:36.521Z,63.13
2024-03-03T12:48:36.612Z,63.54
2024-03-03T12:49:36.676Z,63.07
2024-03-03T12:50:36.749Z,63.07
2024-03-03T12:51:36.850Z,63.67
2024-03-03T12:52:36.942Z,63.64
2024-03-03T12:53:41.012Z,63.67